Terminal Aerodrome Forecast
Issued by NWS

Home | Current Version | Previous Version | Text Only | Print | Product List | Glossary On
Versions: 1 2 3 4 5 6 7 8 9 10 11 12 13 14 15 16 17 18 19 20 21 22
000
FTUS46 KOTX 181120
TAFMWH
TAF
KMWH 181120Z 1812/1912 25004KT P6SM SCT080 BKN120 OVC150
     FM181900 25013G23KT P6SM SCT050 BKN100 BKN150
     FM190300 27011KT P6SM SCT100 BKN150
     FM190800 25004KT P6SM SCT150=

USA.gov is the U.S. government's official web portal to all federal, state and local government web resources and services.